Shandong Fu En — VRQG6 — position and weather

sailwx.info

Track history (hours):
 
Tides and Currents Weather Stations Pressure Air Temp Water Temp Dewpoint Dewpoint Depression Visibility Wind Speed Wind Dir Waves Ship Positions

Shandong Fu En

Last reported at 2018-Feb-21 01:02 UTC. Time now 2018-Feb-22 13:14 UTC.
Position N 52°39' W 005°32'.

Length 229 m; draft 13.2 m.

Type: Cargo ship. MMSI: 477692100.

Date/timePositionNaut miles runAvg speedWind from/ knotsBaromVisibWave heightAir tempDewpointWater temp
2018-Feb-21 01:02N 52°39' W 005°32'010.5
2018-Feb-21 01:00N 52°39' W 005°32'510.0
2018-Feb-21 00:28N 52°44' W 005°29'5 9.7
2018-Feb-21 00:00N 52°48' W 005°28'5 9.3
2018-Feb-20 23:30N 52°53' W 005°26'5 9.0
2018-Feb-20 22:58N 52°58' W 005°25'7111.7
2018-Feb-20 16:51N 54°09' W 005°10'411.8
2018-Feb-20 16:30N 54°13' W 005°10'611.6
2018-Feb-20 16:00N 54°19' W 005°09'611.4
2018-Feb-20 15:30N 54°24' W 005°10'611.0
2018-Feb-20 15:00N 54°30' W 005°12'510.9
2018-Feb-20 14:30N 54°35' W 005°14'612.1
2018-Feb-20 14:00N 54°41' W 005°17'612.9
2018-Feb-20 13:30N 54°46' W 005°23'713.7
2018-Feb-20 13:00N 54°52' W 005°28'714.0
2018-Feb-20 12:30N 54°58' W 005°35'2114.9
2018-Feb-20 11:07N 55°14' W 005°58'216.4
2018-Feb-20 11:00N 55°16' W 005°60'714.8
2018-Feb-20 10:30N 55°21' W 006°09'612.7
2018-Feb-20 10:00N 55°23' W 006°19'613.0
2018-Feb-20 09:30N 55°27' W 006°28'612.9
2018-Feb-20 09:00N 55°31' W 006°37'612.0
2018-Feb-20 08:30N 55°35' W 006°45'612.7
2018-Feb-20 08:00N 55°40' W 006°53'612.6
2018-Feb-20 07:30N 55°44' W 007°01'710.8
2018-Feb-20 06:53N 55°48' W 007°10'4 9.6
2018-Feb-20 06:26N 55°52' W 007°15'  
2018-Feb-15 06:05N 70°29' E 017°00'111.5
2018-Feb-15 05:59N 70°29' E 017°02'511.1
2018-Feb-15 05:30N 70°33' E 017°13'510.5
2018-Feb-15 05:00N 70°37' E 017°24'510.4
2018-Feb-15 04:31N 70°40' E 017°37'510.1
2018-Feb-15 04:00N 70°43' E 017°48'5 9.9
2018-Feb-15 03:30N 70°47' E 017°59'510.1
2018-Feb-15 03:00N 70°50' E 018°10'510.1
2018-Feb-15 02:30N 70°54' E 018°22'5 9.9
2018-Feb-15 02:00N 70°57' E 018°33'319 8.9
2018-Feb-13 14:02N 69°03' E 033°05'0 8.2
2018-Feb-13 14:00N 69°03' E 033°05'3 5.5
2018-Feb-13 13:30N 69°01' E 033°03'0 0.5
2018-Feb-13 12:58N 69°00' E 033°02'0 0.1
2018-Feb-13 12:28N 69°00' E 033°02'0 0.0
2018-Feb-13 11:58N 69°00' E 033°02'0 0.1
2018-Feb-13 11:28N 69°00' E 033°02'0 0.1
2018-Feb-13 10:58N 69°00' E 033°02'0 0.0
2018-Feb-13 10:28N 69°00' E 033°02'0 0.1
2018-Feb-13 09:58N 69°00' E 033°02'0 0.0
2018-Feb-13 09:28N 69°00' E 033°02'0 0.0
2018-Feb-13 08:58N 69°00' E 033°02'0 0.0
2018-Feb-13 08:28N 69°00' E 033°02'0 0.0
2018-Feb-13 07:58N 69°00' E 033°02'0 0.0
2018-Feb-13 07:28N 69°00' E 033°02'0 0.0
2018-Feb-13 06:58N 69°00' E 033°02'0 0.0
2018-Feb-13 06:28N 69°00' E 033°02'0 0.0
2018-Feb-13 05:58N 69°00' E 033°02'0 0.0
2018-Feb-13 05:28N 69°00' E 033°02'0 0.0
2018-Feb-13 04:58N 69°00' E 033°02'0 0.0
2018-Feb-13 04:28N 69°00' E 033°02'0 0.0
2018-Feb-13 03:58N 69°00' E 033°02'0 0.0
2018-Feb-13 03:25N 69°00' E 033°02'0 0.0
2018-Feb-13 02:58N 69°00' E 033°02'0 0.0
2018-Feb-13 02:28N 69°00' E 033°02'0 0.0
2018-Feb-13 01:58N 69°00' E 033°02'0 0.0
2018-Feb-13 01:28N 69°00' E 033°02'0 0.0
2018-Feb-13 00:58N 69°00' E 033°02'0 0.0
2018-Feb-13 00:28N 69°00' E 033°02'0 0.0
2018-Feb-12 23:58N 69°00' E 033°02'0 0.0
2018-Feb-12 23:28N 69°00' E 033°02'0 0.0
2018-Feb-12 22:58N 69°00' E 033°02'0 0.1
2018-Feb-12 22:28N 69°00' E 033°02'0 0.0
2018-Feb-12 21:58N 69°00' E 033°02'0 0.0
2018-Feb-12 21:28N 69°00' E 033°02'0 0.0
2018-Feb-12 20:58N 69°00' E 033°02'0 0.0
2018-Feb-12 20:28N 69°00' E 033°02'0 0.0
2018-Feb-12 19:58N 69°00' E 033°02'0 0.0
2018-Feb-12 19:28N 69°00' E 033°02'0 0.0
2018-Feb-12 18:58N 69°00' E 033°02'0 0.0
2018-Feb-12 18:28N 69°00' E 033°02'0 0.0
2018-Feb-12 17:58N 69°00' E 033°02'0 0.0
2018-Feb-12 17:28N 69°00' E 033°02'0 0.1
2018-Feb-12 16:58N 69°00' E 033°02'0 0.2
2018-Feb-12 16:28N 69°00' E 033°02'0 0.8
2018-Feb-12 16:00N 69°00' E 033°02'1 2.3
2018-Feb-12 15:30N 68°59' E 033°03'0 0.4
2018-Feb-12 15:00N 68°59' E 033°04'0 0.0
2018-Feb-12 14:30N 68°59' E 033°04'0 0.0
2018-Feb-12 14:00N 68°59' E 033°04'0 0.0
2018-Feb-12 13:30N 68°59' E 033°04'0 0.0
2018-Feb-12 13:00N 68°59' E 033°04'0 0.0
2018-Feb-12 12:30N 68°59' E 033°04'0 0.0
2018-Feb-12 12:00N 68°59' E 033°04'0 0.0
2018-Feb-12 11:30N 68°59' E 033°04'0 0.0
2018-Feb-12 11:00N 68°59' E 033°04'0 0.0
2018-Feb-12 10:30N 68°59' E 033°04'0 0.0
2018-Feb-12 10:00N 68°59' E 033°04'0 0.0
2018-Feb-12 09:30N 68°59' E 033°04'0 0.0
2018-Feb-12 09:00N 68°59' E 033°04'0 0.0
2018-Feb-12 08:30N 68°59' E 033°04'0 0.0
2018-Feb-12 07:00N 68°59' E 033°04'0 0.0
2018-Feb-12 06:28N 68°59' E 033°04'0 0.0
2018-Feb-12 05:27N 68°59' E 033°04'0 0.0
2018-Feb-12 01:24N 68°59' E 033°04'0 0.0
2018-Feb-11 07:54N 68°59' E 033°04'0 0.0
2018-Feb-11 06:42N 68°59' E 033°04'  
Track history (hours):
 
Tides and Currents Weather Stations Pressure Air Temp Water Temp Dewpoint Dewpoint Depression Visibility Wind Speed Wind Dir Waves Ship Positions

Shandong Fu En

Last reported at 2018-Feb-21 01:02 UTC. Time now 2018-Feb-22 13:14 UTC.
Position N 52°39' W 005°32'.

Length 229 m; draft 13.2 m.

Type: Cargo ship. MMSI: 477692100.

Date/timePositionNaut miles runAvg speedWind from/ knotsBaromVisibWave heightAir tempDewpointWater temp
2018-Feb-21 01:02N 52°39' W 005°32'010.5
2018-Feb-21 01:00N 52°39' W 005°32'510.0
2018-Feb-21 00:28N 52°44' W 005°29'5 9.7
2018-Feb-21 00:00N 52°48' W 005°28'5 9.3
2018-Feb-20 23:30N 52°53' W 005°26'5 9.0
2018-Feb-20 22:58N 52°58' W 005°25'7111.7
2018-Feb-20 16:51N 54°09' W 005°10'411.8
2018-Feb-20 16:30N 54°13' W 005°10'611.6
2018-Feb-20 16:00N 54°19' W 005°09'611.4
2018-Feb-20 15:30N 54°24' W 005°10'611.0
2018-Feb-20 15:00N 54°30' W 005°12'510.9
2018-Feb-20 14:30N 54°35' W 005°14'612.1
2018-Feb-20 14:00N 54°41' W 005°17'612.9
2018-Feb-20 13:30N 54°46' W 005°23'713.7
2018-Feb-20 13:00N 54°52' W 005°28'714.0
2018-Feb-20 12:30N 54°58' W 005°35'2114.9
2018-Feb-20 11:07N 55°14' W 005°58'216.4
2018-Feb-20 11:00N 55°16' W 005°60'714.8
2018-Feb-20 10:30N 55°21' W 006°09'612.7
2018-Feb-20 10:00N 55°23' W 006°19'613.0
2018-Feb-20 09:30N 55°27' W 006°28'612.9
2018-Feb-20 09:00N 55°31' W 006°37'612.0
2018-Feb-20 08:30N 55°35' W 006°45'612.7
2018-Feb-20 08:00N 55°40' W 006°53'612.6
2018-Feb-20 07:30N 55°44' W 007°01'710.8
2018-Feb-20 06:53N 55°48' W 007°10'4 9.6
2018-Feb-20 06:26N 55°52' W 007°15'  
2018-Feb-15 06:05N 70°29' E 017°00'111.5
2018-Feb-15 05:59N 70°29' E 017°02'511.1
2018-Feb-15 05:30N 70°33' E 017°13'510.5
2018-Feb-15 05:00N 70°37' E 017°24'510.4
2018-Feb-15 04:31N 70°40' E 017°37'510.1
2018-Feb-15 04:00N 70°43' E 017°48'5 9.9
2018-Feb-15 03:30N 70°47' E 017°59'510.1
2018-Feb-15 03:00N 70°50' E 018°10'510.1
2018-Feb-15 02:30N 70°54' E 018°22'5 9.9
2018-Feb-15 02:00N 70°57' E 018°33'319 8.9
2018-Feb-13 14:02N 69°03' E 033°05'0 8.2
2018-Feb-13 14:00N 69°03' E 033°05'3 5.5
2018-Feb-13 13:30N 69°01' E 033°03'0 0.5
2018-Feb-13 12:58N 69°00' E 033°02'0 0.1
2018-Feb-13 12:28N 69°00' E 033°02'0 0.0
2018-Feb-13 11:58N 69°00' E 033°02'0 0.1
2018-Feb-13 11:28N 69°00' E 033°02'0 0.1
2018-Feb-13 10:58N 69°00' E 033°02'0 0.0
2018-Feb-13 10:28N 69°00' E 033°02'0 0.1
2018-Feb-13 09:58N 69°00' E 033°02'0 0.0
2018-Feb-13 09:28N 69°00' E 033°02'0 0.0
2018-Feb-13 08:58N 69°00' E 033°02'0 0.0
2018-Feb-13 08:28N 69°00' E 033°02'0 0.0
2018-Feb-13 07:58N 69°00' E 033°02'0 0.0
2018-Feb-13 07:28N 69°00' E 033°02'0 0.0
2018-Feb-13 06:58N 69°00' E 033°02'0 0.0
2018-Feb-13 06:28N 69°00' E 033°02'0 0.0
2018-Feb-13 05:58N 69°00' E 033°02'0 0.0
2018-Feb-13 05:28N 69°00' E 033°02'0 0.0
2018-Feb-13 04:58N 69°00' E 033°02'0 0.0
2018-Feb-13 04:28N 69°00' E 033°02'0 0.0
2018-Feb-13 03:58N 69°00' E 033°02'0 0.0
2018-Feb-13 03:25N 69°00' E 033°02'0 0.0
2018-Feb-13 02:58N 69°00' E 033°02'0 0.0
2018-Feb-13 02:28N 69°00' E 033°02'0 0.0
2018-Feb-13 01:58N 69°00' E 033°02'0 0.0
2018-Feb-13 01:28N 69°00' E 033°02'0 0.0
2018-Feb-13 00:58N 69°00' E 033°02'0 0.0
2018-Feb-13 00:28N 69°00' E 033°02'0 0.0
2018-Feb-12 23:58N 69°00' E 033°02'0 0.0
2018-Feb-12 23:28N 69°00' E 033°02'0 0.0
2018-Feb-12 22:58N 69°00' E 033°02'0 0.1
2018-Feb-12 22:28N 69°00' E 033°02'0 0.0
2018-Feb-12 21:58N 69°00' E 033°02'0 0.0
2018-Feb-12 21:28N 69°00' E 033°02'0 0.0
2018-Feb-12 20:58N 69°00' E 033°02'0 0.0
2018-Feb-12 20:28N 69°00' E 033°02'0 0.0
2018-Feb-12 19:58N 69°00' E 033°02'0 0.0
2018-Feb-12 19:28N 69°00' E 033°02'0 0.0
2018-Feb-12 18:58N 69°00' E 033°02'0 0.0
2018-Feb-12 18:28N 69°00' E 033°02'0 0.0
2018-Feb-12 17:58N 69°00' E 033°02'0 0.0
2018-Feb-12 17:28N 69°00' E 033°02'0 0.1
2018-Feb-12 16:58N 69°00' E 033°02'0 0.2
2018-Feb-12 16:28N 69°00' E 033°02'0 0.8
2018-Feb-12 16:00N 69°00' E 033°02'1 2.3
2018-Feb-12 15:30N 68°59' E 033°03'0 0.4
2018-Feb-12 15:00N 68°59' E 033°04'0 0.0
2018-Feb-12 14:30N 68°59' E 033°04'0 0.0
2018-Feb-12 14:00N 68°59' E 033°04'0 0.0
2018-Feb-12 13:30N 68°59' E 033°04'0 0.0
2018-Feb-12 13:00N 68°59' E 033°04'0 0.0
2018-Feb-12 12:30N 68°59' E 033°04'0 0.0
2018-Feb-12 12:00N 68°59' E 033°04'0 0.0
2018-Feb-12 11:30N 68°59' E 033°04'0 0.0
2018-Feb-12 11:00N 68°59' E 033°04'0 0.0
2018-Feb-12 10:30N 68°59' E 033°04'0 0.0
2018-Feb-12 10:00N 68°59' E 033°04'0 0.0
2018-Feb-12 09:30N 68°59' E 033°04'0 0.0
2018-Feb-12 09:00N 68°59' E 033°04'0 0.0
2018-Feb-12 08:30N 68°59' E 033°04'0 0.0
2018-Feb-12 07:00N 68°59' E 033°04'0 0.0
2018-Feb-12 06:28N 68°59' E 033°04'0 0.0
2018-Feb-12 05:27N 68°59' E 033°04'0 0.0
2018-Feb-12 01:24N 68°59' E 033°04'0 0.0
2018-Feb-11 07:54N 68°59' E 033°04'0 0.0
2018-Feb-11 06:42N 68°59' E 033°04'  

Dump ship's entire track history